Excellence — KTDP — position and weather

sailwx.info

Track history (hours):
 
Tides and Currents Weather Stations Pressure Air Temp Water Temp Dewpoint Dewpoint Depression Visibility Wind Speed Wind Dir Waves Ship Positions

Excellence

Owner: AJVS, INC, Seattle, WA. More information available from US FCC via Universal Licensing System and Coast Guard Vessel Documentation Center.

Last reported at 2018-Mar-26 14:10 UTC. Time now 2018-Apr-20 01:16 UTC.
Position N 47°38' W 122°23'.
Warning: this ship's position is 24 days out of date.

Length 112 m; draft 6 m.

Type: Other ship. MMSI: 338162000.

Date/timePositionNaut miles runAvg speedWind from/ knotsBaromVisibWave heightAir tempDewpointWater temp
2018-Mar-26 14:10N 47°38' W 122°23'0 0.0
2018-Mar-26 14:00N 47°38' W 122°23'0 0.2
2018-Mar-26 13:30N 47°37' W 122°23'1 2.1
2018-Mar-26 13:01N 47°37' W 122°24'2 3.0
2018-Mar-26 12:31N 47°38' W 122°26'3 5.3
2018-Mar-26 12:01N 47°40' W 122°28'3 5.8
2018-Mar-26 11:30N 47°43' W 122°28'3 5.6
2018-Mar-26 11:00N 47°46' W 122°27'3 5.4
2018-Mar-26 10:30N 47°48' W 122°27'3 5.9
2018-Mar-26 10:00N 47°51' W 122°29'3 6.0
2018-Mar-26 09:30N 47°54' W 122°30'3 5.5
2018-Mar-26 09:01N 47°56' W 122°32'3 6.1
2018-Mar-26 08:30N 47°58' W 122°36'3 6.6
2018-Mar-26 08:00N 48°01' W 122°38'6 9.0
2018-Mar-26 07:19N 48°07' W 122°41'515.3
2018-Mar-26 07:00N 48°10' W 122°46'713.7
2018-Mar-26 06:30N 48°11' W 122°56'713.5
2018-Mar-26 05:58N 48°12' W 123°07'613.5
2018-Mar-26 05:30N 48°13' W 123°16'714.1
2018-Mar-26 05:00N 48°13' W 123°27'814.2
2018-Mar-26 04:25N 48°13' W 123°40'715.4
2018-Mar-26 04:00N 48°14' W 123°49'714.8
2018-Mar-26 03:30N 48°15' W 124°00'714.6
2018-Mar-26 03:00N 48°18' W 124°10'713.9
2018-Mar-26 02:31N 48°21' W 124°20'714.4
2018-Mar-26 02:00N 48°24' W 124°30'713.6
2018-Mar-26 01:30N 48°27' W 124°39'713.1
2018-Mar-26 01:00N 48°29' W 124°49'613.1
2018-Mar-26 00:30N 48°29' W 124°58'612.6
2018-Mar-26 00:00N 48°29' W 125°08'612.1
2018-Mar-25 23:30N 48°31' W 125°16'612.7
2018-Mar-25 23:00N 48°34' W 125°25'612.4
2018-Mar-25 22:30N 48°36' W 125°33'612.1
2018-Mar-25 22:00N 48°39' W 125°42'510.2
2018-Mar-25 21:30N 48°42' W 125°48'611.8
2018-Mar-25 21:00N 48°45' W 125°56'611.9
2018-Mar-25 20:30N 48°48' W 126°04'611.8
2018-Mar-25 20:00N 48°50' W 126°12'612.1
2018-Mar-25 19:30N 48°53' W 126°20'611.6
2018-Mar-25 19:00N 48°55' W 126°28'611.8
2018-Mar-25 18:29N 48°58' W 126°37'612.1
2018-Mar-25 17:59N 49°01' W 126°45'612.5
2018-Mar-25 17:28N 49°04' W 126°53'  
Track history (hours):
 
Tides and Currents Weather Stations Pressure Air Temp Water Temp Dewpoint Dewpoint Depression Visibility Wind Speed Wind Dir Waves Ship Positions

Excellence

Owner: AJVS, INC, Seattle, WA. More information available from US FCC via Universal Licensing System and Coast Guard Vessel Documentation Center.

Last reported at 2018-Mar-26 14:10 UTC. Time now 2018-Apr-20 01:16 UTC.
Position N 47°38' W 122°23'.
Warning: this ship's position is 24 days out of date.

Length 112 m; draft 6 m.

Type: Other ship. MMSI: 338162000.

Date/timePositionNaut miles runAvg speedWind from/ knotsBaromVisibWave heightAir tempDewpointWater temp
2018-Mar-26 14:10N 47°38' W 122°23'0 0.0
2018-Mar-26 14:00N 47°38' W 122°23'0 0.2
2018-Mar-26 13:30N 47°37' W 122°23'1 2.1
2018-Mar-26 13:01N 47°37' W 122°24'2 3.0
2018-Mar-26 12:31N 47°38' W 122°26'3 5.3
2018-Mar-26 12:01N 47°40' W 122°28'3 5.8
2018-Mar-26 11:30N 47°43' W 122°28'3 5.6
2018-Mar-26 11:00N 47°46' W 122°27'3 5.4
2018-Mar-26 10:30N 47°48' W 122°27'3 5.9
2018-Mar-26 10:00N 47°51' W 122°29'3 6.0
2018-Mar-26 09:30N 47°54' W 122°30'3 5.5
2018-Mar-26 09:01N 47°56' W 122°32'3 6.1
2018-Mar-26 08:30N 47°58' W 122°36'3 6.6
2018-Mar-26 08:00N 48°01' W 122°38'6 9.0
2018-Mar-26 07:19N 48°07' W 122°41'515.3
2018-Mar-26 07:00N 48°10' W 122°46'713.7
2018-Mar-26 06:30N 48°11' W 122°56'713.5
2018-Mar-26 05:58N 48°12' W 123°07'613.5
2018-Mar-26 05:30N 48°13' W 123°16'714.1
2018-Mar-26 05:00N 48°13' W 123°27'814.2
2018-Mar-26 04:25N 48°13' W 123°40'715.4
2018-Mar-26 04:00N 48°14' W 123°49'714.8
2018-Mar-26 03:30N 48°15' W 124°00'714.6
2018-Mar-26 03:00N 48°18' W 124°10'713.9
2018-Mar-26 02:31N 48°21' W 124°20'714.4
2018-Mar-26 02:00N 48°24' W 124°30'713.6
2018-Mar-26 01:30N 48°27' W 124°39'713.1
2018-Mar-26 01:00N 48°29' W 124°49'613.1
2018-Mar-26 00:30N 48°29' W 124°58'612.6
2018-Mar-26 00:00N 48°29' W 125°08'612.1
2018-Mar-25 23:30N 48°31' W 125°16'612.7
2018-Mar-25 23:00N 48°34' W 125°25'612.4
2018-Mar-25 22:30N 48°36' W 125°33'612.1
2018-Mar-25 22:00N 48°39' W 125°42'510.2
2018-Mar-25 21:30N 48°42' W 125°48'611.8
2018-Mar-25 21:00N 48°45' W 125°56'611.9
2018-Mar-25 20:30N 48°48' W 126°04'611.8
2018-Mar-25 20:00N 48°50' W 126°12'612.1
2018-Mar-25 19:30N 48°53' W 126°20'611.6
2018-Mar-25 19:00N 48°55' W 126°28'611.8
2018-Mar-25 18:29N 48°58' W 126°37'612.1
2018-Mar-25 17:59N 49°01' W 126°45'612.5
2018-Mar-25 17:28N 49°04' W 126°53'  

Dump ship's entire track history